sensor_id;sensor_type;location;lat;lon;timestamp;pressure;altitude;pressure_sealevel;temperature;humidity
58092;BME280;43896;48.178;11.578;2023-05-12T00:01:16;95463.69;;;10.94;81.67
58092;BME280;43896;48.178;11.578;2023-05-12T00:03:44;95498.56;;;10.87;82.67
58092;BME280;43896;48.178;11.578;2023-05-12T00:06:09;95545.22;;;11.02;84.19
58092;BME280;43896;48.178;11.578;2023-05-12T00:08:37;95505.63;;;10.95;82.90
58092;BME280;43896;48.178;11.578;2023-05-12T00:11:03;95534.47;;;11.28;81.83
58092;BME280;43896;48.178;11.578;2023-05-12T00:13:28;95462.53;;;10.88;81.75
58092;BME280;43896;48.178;11.578;2023-05-12T00:15:54;95525.06;;;11.34;80.77
58092;BME280;43896;48.178;11.578;2023-05-12T00:18:21;95498.38;;;11.05;81.16
58092;BME280;43896;48.178;11.578;2023-05-12T00:20:47;95509.41;;;10.84;82.40
58092;BME280;43896;48.178;11.578;2023-05-12T00:23:12;95502.44;;;11.08;81.97
58092;BME280;43896;48.178;11.578;2023-05-12T00:25:38;95448.97;;;10.76;81.30
58092;BME280;43896;48.178;11.578;2023-05-12T00:28:04;95508.00;;;11.21;81.16
58092;BME280;43896;48.178;11.578;2023-05-12T00:30:29;95489.97;;;11.02;81.00
58092;BME280;43896;48.178;11.578;2023-05-12T00:32:56;95454.66;;;10.88;80.74
58092;BME280;43896;48.178;11.578;2023-05-12T00:35:22;95458.13;;;10.88;81.00
58092;BME280;43896;48.178;11.578;2023-05-12T00:37:48;95495.19;;;11.18;80.57
58092;BME280;43896;48.178;11.578;2023-05-12T00:40:13;95445.94;;;10.87;80.32
58092;BME280;43896;48.178;11.578;2023-05-12T00:42:38;95519.63;;;11.35;80.36
58092;BME280;43896;48.178;11.578;2023-05-12T00:45:04;95472.16;;;11.12;79.94
58092;BME280;43896;48.178;11.578;2023-05-12T00:47:30;95463.84;;;11.00;80.47
58092;BME280;43896;48.178;11.578;2023-05-12T00:49:56;95486.31;;;11.19;80.68
58092;BME280;43896;48.178;11.578;2023-05-12T00:52:21;95475.47;;;11.14;80.95
58092;BME280;43896;48.178;11.578;2023-05-12T00:54:47;95466.09;;;11.03;81.03
58092;BME280;43896;48.178;11.578;2023-05-12T00:57:13;95470.41;;;11.04;81.09
58092;BME280;43896;48.178;11.578;2023-05-12T00:59:39;95483.19;;;11.16;81.33
58092;BME280;43896;48.178;11.578;2023-05-12T01:02:04;95533.91;;;11.49;81.12
58092;BME280;43896;48.178;11.578;2023-05-12T01:04:32;95522.88;;;11.45;80.15
58092;BME280;43896;48.178;11.578;2023-05-12T01:07:25;95480.38;;;11.17;80.08
58092;BME280;43896;48.178;11.578;2023-05-12T01:09:55;95473.19;;;10.39;82.43
58092;BME280;43896;48.178;11.578;2023-05-12T01:12:22;95476.75;;;10.13;84.21
58092;BME280;43896;48.178;11.578;2023-05-12T01:14:48;95506.13;;;10.82;82.74
58092;BME280;43896;48.178;11.578;2023-05-12T01:17:19;95466.53;;;10.76;80.91
58092;BME280;43896;48.178;11.578;2023-05-12T01:19:51;95445.47;;;10.84;79.53
58092;BME280;43896;48.178;11.578;2023-05-12T01:22:18;95490.84;;;10.78;80.95
58092;BME280;43896;48.178;11.578;2023-05-12T01:24:52;95480.38;;;10.61;81.43
58092;BME280;43896;48.178;11.578;2023-05-12T01:27:20;95502.72;;;10.65;82.49
58092;BME280;43896;48.178;11.578;2023-05-12T01:29:46;95466.44;;;10.36;82.35
58092;BME280;43896;48.178;11.578;2023-05-12T01:32:13;95474.59;;;10.74;81.18
58092;BME280;43896;48.178;11.578;2023-05-12T01:34:39;95516.22;;;11.26;80.35
58092;BME280;43896;48.178;11.578;2023-05-12T01:37:07;95520.44;;;11.36;79.97
58092;BME280;43896;48.178;11.578;2023-05-12T01:39:33;95439.88;;;10.87;79.74
58092;BME280;43896;48.178;11.578;2023-05-12T01:41:59;95440.44;;;10.66;79.88
58092;BME280;43896;48.178;11.578;2023-05-12T01:44:24;95491.44;;;11.04;80.12
58092;BME280;43896;48.178;11.578;2023-05-12T01:46:49;95532.63;;;11.37;80.51
58092;BME280;43896;48.178;11.578;2023-05-12T01:49:15;95515.72;;;11.31;79.97
58092;BME280;43896;48.178;11.578;2023-05-12T01:51:40;95468.66;;;10.80;79.64
58092;BME280;43896;48.178;11.578;2023-05-12T01:54:05;95444.06;;;10.57;81.58
58092;BME280;43896;48.178;11.578;2023-05-12T01:56:31;95486.34;;;11.03;80.08
58092;BME280;43896;48.178;11.578;2023-05-12T01:58:56;95497.97;;;11.17;79.99
58092;BME280;43896;48.178;11.578;2023-05-12T02:01:21;95491.72;;;11.18;79.73
58092;BME280;43896;48.178;11.578;2023-05-12T02:03:49;95430.16;;;10.87;79.73
58092;BME280;43896;48.178;11.578;2023-05-12T02:06:15;95471.00;;;11.15;79.08
58092;BME280;43896;48.178;11.578;2023-05-12T02:08:41;95516.91;;;11.52;79.27
58092;BME280;43896;48.178;11.578;2023-05-12T02:11:07;95453.44;;;11.07;78.66
58092;BME280;43896;48.178;11.578;2023-05-12T02:13:33;95458.97;;;11.20;78.59
58092;BME280;43896;48.178;11.578;2023-05-12T02:16:00;95501.69;;;11.39;79.04
58092;BME280;43896;48.178;11.578;2023-05-12T02:18:25;95451.47;;;11.09;79.44
58092;BME280;43896;48.178;11.578;2023-05-12T02:20:51;95452.44;;;11.08;79.18
58092;BME280;43896;48.178;11.578;2023-05-12T02:23:16;95417.34;;;10.84;79.52
58092;BME280;43896;48.178;11.578;2023-05-12T02:25:42;95502.63;;;11.46;79.01
58092;BME280;43896;48.178;11.578;2023-05-12T02:28:07;95464.41;;;11.19;78.59
58092;BME280;43896;48.178;11.578;2023-05-12T02:30:44;95487.09;;;11.28;79.80
58092;BME280;43896;48.178;11.578;2023-05-12T02:33:10;95516.81;;;11.45;80.14
58092;BME280;43896;48.178;11.578;2023-05-12T02:35:36;95465.28;;;11.11;80.72
58092;BME280;43896;48.178;11.578;2023-05-12T02:38:01;95494.97;;;11.36;79.95
58092;BME280;43896;48.178;11.578;2023-05-12T02:40:26;95459.69;;;11.14;80.17
58092;BME280;43896;48.178;11.578;2023-05-12T02:42:52;95445.41;;;11.00;80.39
58092;BME280;43896;48.178;11.578;2023-05-12T02:45:17;95469.66;;;11.19;80.24
58092;BME280;43896;48.178;11.578;2023-05-12T02:47:43;95454.28;;;11.07;80.67
58092;BME280;43896;48.178;11.578;2023-05-12T02:50:08;95440.50;;;10.89;80.31
58092;BME280;43896;48.178;11.578;2023-05-12T02:52:34;95479.94;;;11.05;81.26
58092;BME280;43896;48.178;11.578;2023-05-12T02:54:59;95492.06;;;11.15;81.24
58092;BME280;43896;48.178;11.578;2023-05-12T02:57:25;95470.78;;;10.85;81.23
58092;BME280;43896;48.178;11.578;2023-05-12T02:59:56;95464.69;;;10.84;81.19
58092;BME280;43896;48.178;11.578;2023-05-12T03:02:21;95432.41;;;10.51;82.29
58092;BME280;43896;48.178;11.578;2023-05-12T03:04:46;95505.78;;;10.94;83.92
58092;BME280;43896;48.178;11.578;2023-05-12T03:07:11;95526.03;;;10.77;83.86
58092;BME280;43896;48.178;11.578;2023-05-12T03:09:37;95495.13;;;10.87;83.17
58092;BME280;43896;48.178;11.578;2023-05-12T03:12:02;95513.22;;;10.82;82.44
58092;BME280;43896;48.178;11.578;2023-05-12T03:14:28;95475.91;;;10.78;82.74
58092;BME280;43896;48.178;11.578;2023-05-12T03:16:53;95465.06;;;10.65;81.97
58092;BME280;43896;48.178;11.578;2023-05-12T03:19:18;95454.94;;;10.45;82.03
58092;BME280;43896;48.178;11.578;2023-05-12T03:21:44;95430.78;;;9.92;84.35
58092;BME280;43896;48.178;11.578;2023-05-12T03:24:09;95524.53;;;10.00;86.51
58092;BME280;43896;48.178;11.578;2023-05-12T03:26:35;95440.81;;;9.89;85.55
58092;BME280;43896;48.178;11.578;2023-05-12T03:29:00;95455.75;;;10.46;83.58
58092;BME280;43896;48.178;11.578;2023-05-12T03:31:25;95486.44;;;10.29;84.32
58092;BME280;43896;48.178;11.578;2023-05-12T03:33:51;95480.38;;;10.53;83.28
58092;BME280;43896;48.178;11.578;2023-05-12T03:36:16;95489.03;;;9.80;86.94
58092;BME280;43896;48.178;11.578;2023-05-12T03:38:41;95499.38;;;9.81;88.12
58092;BME280;43896;48.178;11.578;2023-05-12T03:41:07;95458.78;;;9.43;88.79
58092;BME280;43896;48.178;11.578;2023-05-12T03:43:32;95480.72;;;9.33;89.51
58092;BME280;43896;48.178;11.578;2023-05-12T03:45:58;95463.50;;;9.31;89.38
58092;BME280;43896;48.178;11.578;2023-05-12T03:48:24;95431.56;;;9.52;86.77
58092;BME280;43896;48.178;11.578;2023-05-12T03:50:49;95508.56;;;9.77;87.44
58092;BME280;43896;48.178;11.578;2023-05-12T03:53:15;95497.03;;;9.53;88.49
58092;BME280;43896;48.178;11.578;2023-05-12T03:55:40;95455.13;;;9.27;89.25
58092;BME280;43896;48.178;11.578;2023-05-12T03:58:06;95509.44;;;10.19;85.78
58092;BME280;43896;48.178;11.578;2023-05-12T04:00:32;95518.03;;;10.37;85.73
58092;BME280;43896;48.178;11.578;2023-05-12T04:02:58;95478.56;;;10.04;85.50
58092;BME280;43896;48.178;11.578;2023-05-12T04:05:23;95444.72;;;9.85;86.07
58092;BME280;43896;48.178;11.578;2023-05-12T04:07:49;95456.22;;;10.49;83.24
58092;BME280;43896;48.178;11.578;2023-05-12T04:10:14;95444.69;;;10.59;82.26
58092;BME280;43896;48.178;11.578;2023-05-12T04:12:40;95444.53;;;10.68;81.47
58092;BME280;43896;48.178;11.578;2023-05-12T04:15:06;95443.78;;;10.02;83.08
58092;BME280;43896;48.178;11.578;2023-05-12T04:17:31;95453.06;;;9.64;85.86
58092;BME280;43896;48.178;11.578;2023-05-12T04:19:57;95476.28;;;10.34;84.34
58092;BME280;43896;48.178;11.578;2023-05-12T04:22:22;95525.19;;;10.10;85.44
58092;BME280;43896;48.178;11.578;2023-05-12T04:24:48;95507.16;;;10.65;83.11
58092;BME280;43896;48.178;11.578;2023-05-12T04:27:13;95475.75;;;9.89;84.86
58092;BME280;43896;48.178;11.578;2023-05-12T04:29:39;95514.06;;;10.66;82.89
58092;BME280;43896;48.178;11.578;2023-05-12T04:32:04;95519.72;;;11.11;81.00
58092;BME280;43896;48.178;11.578;2023-05-12T04:34:52;95526.94;;;11.17;79.96
58092;BME280;43896;48.178;11.578;2023-05-12T04:37:56;95443.31;;;10.87;79.39
58092;BME280;43896;48.178;11.578;2023-05-12T04:40:32;95445.63;;;10.91;78.67
58092;BME280;43896;48.178;11.578;2023-05-12T04:42:57;95518.13;;;11.41;78.24
58092;BME280;43896;48.178;11.578;2023-05-12T04:45:23;95491.50;;;11.27;78.90
58092;BME280;43896;48.178;11.578;2023-05-12T04:47:48;95504.63;;;11.44;78.92
58092;BME280;43896;48.178;11.578;2023-05-12T04:50:13;95489.50;;;11.38;78.30
58092;BME280;43896;48.178;11.578;2023-05-12T04:52:39;95511.66;;;11.52;77.95
58092;BME280;43896;48.178;11.578;2023-05-12T04:55:05;95543.78;;;11.78;78.08
58092;BME280;43896;48.178;11.578;2023-05-12T04:57:31;95464.50;;;11.34;77.49
58092;BME280;43896;48.178;11.578;2023-05-12T04:59:57;95532.97;;;11.73;77.71
58092;BME280;43896;48.178;11.578;2023-05-12T05:02:23;95529.69;;;11.71;78.58
58092;BME280;43896;48.178;11.578;2023-05-12T05:04:49;95546.91;;;11.82;78.52
58092;BME280;43896;48.178;11.578;2023-05-12T05:07:14;95552.38;;;11.72;79.50
58092;BME280;43896;48.178;11.578;2023-05-12T05:09:40;95553.72;;;11.20;80.96
58092;BME280;43896;48.178;11.578;2023-05-12T05:12:06;95557.44;;;11.42;79.13
58092;BME280;43896;48.178;11.578;2023-05-12T05:14:31;95564.88;;;11.31;80.23
58092;BME280;43896;48.178;11.578;2023-05-12T05:16:57;95532.25;;;11.48;79.38
58092;BME280;43896;48.178;11.578;2023-05-12T05:19:23;95549.22;;;11.77;78.57
58092;BME280;43896;48.178;11.578;2023-05-12T05:21:49;95536.78;;;11.71;78.08
58092;BME280;43896;48.178;11.578;2023-05-12T05:24:14;95559.38;;;11.96;77.36
58092;BME280;43896;48.178;11.578;2023-05-12T05:26:40;95540.00;;;11.81;77.62
58092;BME280;43896;48.178;11.578;2023-05-12T05:29:06;95571.88;;;11.55;79.57
58092;BME280;43896;48.178;11.578;2023-05-12T05:31:31;95510.13;;;11.26;79.11
58092;BME280;43896;48.178;11.578;2023-05-12T05:33:57;95572.41;;;11.90;79.41
58092;BME280;43896;48.178;11.578;2023-05-12T05:36:22;95566.59;;;12.03;78.10
58092;BME280;43896;48.178;11.578;2023-05-12T05:38:48;95557.69;;;12.04;77.78
58092;BME280;43896;48.178;11.578;2023-05-12T05:41:13;95571.84;;;11.15;81.62
58092;BME280;43896;48.178;11.578;2023-05-12T05:43:39;95552.63;;;11.06;81.74
58092;BME280;43896;48.178;11.578;2023-05-12T05:46:04;95563.00;;;11.56;78.46
58092;BME280;43896;48.178;11.578;2023-05-12T05:48:30;95553.28;;;11.56;79.68
58092;BME280;43896;48.178;11.578;2023-05-12T05:50:56;95567.94;;;11.98;78.17
58092;BME280;43896;48.178;11.578;2023-05-12T05:53:21;95570.81;;;11.72;79.37
58092;BME280;43896;48.178;11.578;2023-05-12T05:55:47;95578.19;;;11.85;79.66
58092;BME280;43896;48.178;11.578;2023-05-12T05:58:15;95573.88;;;10.88;83.12
58092;BME280;43896;48.178;11.578;2023-05-12T06:00:41;95542.34;;;10.39;83.13
58092;BME280;43896;48.178;11.578;2023-05-12T06:03:07;95572.38;;;11.02;82.64
58092;BME280;43896;48.178;11.578;2023-05-12T06:05:33;95544.53;;;11.24;81.58
58092;BME280;43896;48.178;11.578;2023-05-12T06:07:58;95557.00;;;11.22;82.50
58092;BME280;43896;48.178;11.578;2023-05-12T06:10:24;95569.44;;;11.93;80.31
58092;BME280;43896;48.178;11.578;2023-05-12T06:12:49;95578.63;;;12.28;78.25
58092;BME280;43896;48.178;11.578;2023-05-12T06:15:15;95478.22;;;11.92;76.85
58092;BME280;43896;48.178;11.578;2023-05-12T06:17:40;95531.47;;;12.33;75.75
58092;BME280;43896;48.178;11.578;2023-05-12T06:20:06;95501.47;;;12.11;75.44
58092;BME280;43896;48.178;11.578;2023-05-12T06:22:32;95490.78;;;11.11;78.86
58092;BME280;43896;48.178;11.578;2023-05-12T06:24:59;95487.44;;;11.56;77.07
58092;BME280;43896;48.178;11.578;2023-05-12T06:27:25;95593.50;;;11.42;80.70
58092;BME280;43896;48.178;11.578;2023-05-12T06:29:51;95537.31;;;11.58;78.66
58092;BME280;43896;48.178;11.578;2023-05-12T06:32:16;95595.25;;;12.29;77.11
58092;BME280;43896;48.178;11.578;2023-05-12T06:34:42;95552.13;;;12.22;77.14
58092;BME280;43896;48.178;11.578;2023-05-12T06:37:07;95532.34;;;12.26;75.13
58092;BME280;43896;48.178;11.578;2023-05-12T06:39:32;95540.47;;;12.39;76.35
58092;BME280;43896;48.178;11.578;2023-05-12T06:41:58;95595.16;;;12.68;74.25
58092;BME280;43896;48.178;11.578;2023-05-12T06:44:23;95541.50;;;12.38;73.13
58092;BME280;43896;48.178;11.578;2023-05-12T06:46:49;95587.53;;;11.96;77.10
58092;BME280;43896;48.178;11.578;2023-05-12T06:49:14;95552.69;;;11.77;77.85
58092;BME280;43896;48.178;11.578;2023-05-12T06:51:39;95495.72;;;11.05;76.95
58092;BME280;43896;48.178;11.578;2023-05-12T06:54:05;95555.63;;;11.82;77.42
58092;BME280;43896;48.178;11.578;2023-05-12T06:56:30;95560.50;;;11.15;78.02
58092;BME280;43896;48.178;11.578;2023-05-12T06:58:56;95557.31;;;11.36;77.40
58092;BME280;43896;48.178;11.578;2023-05-12T07:01:30;95537.69;;;10.82;80.36
58092;BME280;43896;48.178;11.578;2023-05-12T07:03:57;95514.88;;;10.50;80.41
58092;BME280;43896;48.178;11.578;2023-05-12T07:06:22;95564.75;;;11.24;80.68
58092;BME280;43896;48.178;11.578;2023-05-12T07:08:48;95581.69;;;11.30;78.15
58092;BME280;43896;48.178;11.578;2023-05-12T07:11:14;95566.28;;;11.02;77.37
58092;BME280;43896;48.178;11.578;2023-05-12T07:13:50;95592.94;;;12.03;76.97
58092;BME280;43896;48.178;11.578;2023-05-12T07:16:17;95594.19;;;12.15;78.12
58092;BME280;43896;48.178;11.578;2023-05-12T07:18:43;95558.38;;;11.58;79.92
58092;BME280;43896;48.178;11.578;2023-05-12T07:21:09;95535.41;;;11.75;78.18
58092;BME280;43896;48.178;11.578;2023-05-12T07:23:35;95563.16;;;12.25;76.43
58092;BME280;43896;48.178;11.578;2023-05-12T07:26:01;95541.63;;;11.82;75.21
58092;BME280;43896;48.178;11.578;2023-05-12T07:28:32;95513.09;;;11.62;75.24
58092;BME280;43896;48.178;11.578;2023-05-12T07:31:02;95572.94;;;12.16;76.22
58092;BME280;43896;48.178;11.578;2023-05-12T07:33:28;95537.91;;;11.29;77.31
58092;BME280;43896;48.178;11.578;2023-05-12T07:35:54;95493.44;;;11.02;77.10
58092;BME280;43896;48.178;11.578;2023-05-12T07:38:19;95542.53;;;11.66;74.95
58092;BME280;43896;48.178;11.578;2023-05-12T07:40:44;95523.44;;;12.04;73.67
58092;BME280;43896;48.178;11.578;2023-05-12T07:43:10;95530.75;;;12.40;72.62
58092;BME280;43896;48.178;11.578;2023-05-12T07:45:36;95548.44;;;12.31;73.17
58092;BME280;43896;48.178;11.578;2023-05-12T07:48:01;95499.56;;;11.34;78.24
58092;BME280;43896;48.178;11.578;2023-05-12T07:50:27;95547.38;;;11.54;76.67
58092;BME280;43896;48.178;11.578;2023-05-12T07:52:53;95557.88;;;12.02;76.89
58092;BME280;43896;48.178;11.578;2023-05-12T07:55:20;95564.28;;;11.99;76.50
58092;BME280;43896;48.178;11.578;2023-05-12T07:57:46;95561.88;;;12.21;75.98
58092;BME280;43896;48.178;11.578;2023-05-12T08:00:12;95520.94;;;11.39;74.71
58092;BME280;43896;48.178;11.578;2023-05-12T08:02:39;95568.53;;;11.30;77.99
58092;BME280;43896;48.178;11.578;2023-05-12T08:05:05;95536.88;;;10.90;78.76
58092;BME280;43896;48.178;11.578;2023-05-12T08:07:33;95590.09;;;11.17;79.07
58092;BME280;43896;48.178;11.578;2023-05-12T08:09:58;95571.31;;;11.28;78.64
58092;BME280;43896;48.178;11.578;2023-05-12T08:12:24;95545.09;;;11.43;77.19
58092;BME280;43896;48.178;11.578;2023-05-12T08:14:49;95518.81;;;11.35;75.65
58092;BME280;43896;48.178;11.578;2023-05-12T08:17:15;95600.94;;;11.78;76.67
58092;BME280;43896;48.178;11.578;2023-05-12T08:19:40;95540.22;;;12.03;74.70
58092;BME280;43896;48.178;11.578;2023-05-12T08:22:06;95547.84;;;11.58;76.26
58092;BME280;43896;48.178;11.578;2023-05-12T08:24:31;95537.09;;;11.28;76.17
58092;BME280;43896;48.178;11.578;2023-05-12T08:26:56;95569.66;;;11.75;74.87
58092;BME280;43896;48.178;11.578;2023-05-12T08:29:22;95578.53;;;12.45;74.13
58092;BME280;43896;48.178;11.578;2023-05-12T08:31:50;95538.41;;;12.87;75.47
58092;BME280;43896;48.178;11.578;2023-05-12T08:34:15;95568.88;;;13.28;73.56
58092;BME280;43896;48.178;11.578;2023-05-12T08:36:40;95536.78;;;13.01;72.70
58092;BME280;43896;48.178;11.578;2023-05-12T08:39:06;95539.94;;;13.49;72.04
58092;BME280;43896;48.178;11.578;2023-05-12T08:41:43;95563.69;;;14.16;73.45
58092;BME280;43896;48.178;11.578;2023-05-12T08:44:10;95582.56;;;14.71;70.92
58092;BME280;43896;48.178;11.578;2023-05-12T08:46:36;95520.59;;;13.64;67.76
58092;BME280;43896;48.178;11.578;2023-05-12T08:49:02;95535.19;;;13.15;69.64
58092;BME280;43896;48.178;11.578;2023-05-12T08:51:30;95549.03;;;13.17;71.26
58092;BME280;43896;48.178;11.578;2023-05-12T08:53:56;95550.44;;;12.90;70.54
58092;BME280;43896;48.178;11.578;2023-05-12T08:56:22;95509.66;;;12.40;70.10
58092;BME280;43896;48.178;11.578;2023-05-12T08:58:48;95531.22;;;12.20;71.42
58092;BME280;43896;48.178;11.578;2023-05-12T09:01:15;95570.91;;;12.50;71.04
58092;BME280;43896;48.178;11.578;2023-05-12T09:03:41;95584.84;;;12.97;69.46
58092;BME280;43896;48.178;11.578;2023-05-12T09:06:07;95525.28;;;12.64;69.60
58092;BME280;43896;48.178;11.578;2023-05-12T09:08:33;95549.34;;;12.99;68.71
58092;BME280;43896;48.178;11.578;2023-05-12T09:10:59;95511.44;;;12.24;70.12
58092;BME280;43896;48.178;11.578;2023-05-12T09:13:44;95587.38;;;12.90;71.03
58092;BME280;43896;48.178;11.578;2023-05-12T09:16:14;95579.38;;;12.83;69.45
58092;BME280;43896;48.178;11.578;2023-05-12T09:18:45;95608.63;;;13.11;71.24
58092;BME280;43896;48.178;11.578;2023-05-12T09:21:12;95555.44;;;12.85;70.72
58092;BME280;43896;48.178;11.578;2023-05-12T09:23:38;95558.38;;;13.05;70.96
58092;BME280;43896;48.178;11.578;2023-05-12T09:26:03;95587.31;;;13.36;71.43
58092;BME280;43896;48.178;11.578;2023-05-12T09:28:36;95526.97;;;12.95;69.74
58092;BME280;43896;48.178;11.578;2023-05-12T09:31:13;95587.50;;;13.11;69.17
58092;BME280;43896;48.178;11.578;2023-05-12T09:33:38;95555.84;;;13.26;69.11
58092;BME280;43896;48.178;11.578;2023-05-12T09:36:05;95547.63;;;12.91;71.01
58092;BME280;43896;48.178;11.578;2023-05-12T09:38:30;95508.88;;;13.07;69.09
58092;BME280;43896;48.178;11.578;2023-05-12T09:40:55;95526.75;;;13.35;67.70
58092;BME280;43896;48.178;11.578;2023-05-12T09:43:21;95552.38;;;13.11;68.52
58092;BME280;43896;48.178;11.578;2023-05-12T09:45:46;95526.59;;;11.99;69.60
58092;BME280;43896;48.178;11.578;2023-05-12T09:48:14;95588.00;;;13.30;68.65
58092;BME280;43896;48.178;11.578;2023-05-12T09:50:49;95522.59;;;12.49;69.03
58092;BME280;43896;48.178;11.578;2023-05-12T09:53:16;95533.22;;;12.94;68.45
58092;BME280;43896;48.178;11.578;2023-05-12T09:55:47;95548.09;;;12.72;68.94
58092;BME280;43896;48.178;11.578;2023-05-12T09:58:13;95605.97;;;12.97;68.04
58092;BME280;43896;48.178;11.578;2023-05-12T10:00:40;95578.38;;;12.61;70.43
58092;BME280;43896;48.178;11.578;2023-05-12T10:03:12;95537.84;;;12.39;69.47
58092;BME280;43896;48.178;11.578;2023-05-12T10:05:44;95521.31;;;12.22;70.02
58092;BME280;43896;48.178;11.578;2023-05-12T10:08:12;95598.44;;;13.08;69.74
58092;BME280;43896;48.178;11.578;2023-05-12T10:10:40;95579.69;;;13.18;67.81
58092;BME280;43896;48.178;11.578;2023-05-12T10:13:06;95598.53;;;13.53;67.19
58092;BME280;43896;48.178;11.578;2023-05-12T10:15:33;95513.34;;;12.53;67.43
58092;BME280;43896;48.178;11.578;2023-05-12T10:17:58;95615.41;;;12.91;68.58
58092;BME280;43896;48.178;11.578;2023-05-12T10:20:25;95581.69;;;13.16;68.43
58092;BME280;43896;48.178;11.578;2023-05-12T10:22:53;95534.47;;;12.68;68.20
58092;BME280;43896;48.178;11.578;2023-05-12T10:25:19;95545.44;;;12.95;68.07
58092;BME280;43896;48.178;11.578;2023-05-12T10:27:45;95548.56;;;12.61;68.19
58092;BME280;43896;48.178;11.578;2023-05-12T10:30:12;95561.63;;;12.92;68.32
58092;BME280;43896;48.178;11.578;2023-05-12T10:32:39;95593.16;;;13.08;69.90
58092;BME280;43896;48.178;11.578;2023-05-12T10:35:09;95550.69;;;12.80;68.55
58092;BME280;43896;48.178;11.578;2023-05-12T10:37:35;95528.59;;;12.20;69.62
58092;BME280;43896;48.178;11.578;2023-05-12T10:40:01;95564.66;;;12.43;69.83
58092;BME280;43896;48.178;11.578;2023-05-12T10:42:36;95555.41;;;12.24;71.36
58092;BME280;43896;48.178;11.578;2023-05-12T10:45:13;95553.25;;;12.27;70.48
58092;BME280;43896;48.178;11.578;2023-05-12T10:47:41;95586.94;;;12.86;69.75
58092;BME280;43896;48.178;11.578;2023-05-12T10:50:07;95575.09;;;12.97;70.00
58092;BME280;43896;48.178;11.578;2023-05-12T10:52:33;95550.22;;;12.38;68.55
58092;BME280;43896;48.178;11.578;2023-05-12T10:55:02;95624.25;;;12.60;69.31
58092;BME280;43896;48.178;11.578;2023-05-12T10:57:28;95568.72;;;12.30;68.86
58092;BME280;43896;48.178;11.578;2023-05-12T10:59:59;95572.53;;;12.51;69.54
58092;BME280;43896;48.178;11.578;2023-05-12T11:02:26;95531.19;;;12.66;68.52
58092;BME280;43896;48.178;11.578;2023-05-12T11:05:02;95605.69;;;12.68;69.06
58092;BME280;43896;48.178;11.578;2023-05-12T11:07:30;95598.53;;;13.00;68.98
58092;BME280;43896;48.178;11.578;2023-05-12T11:10:00;95546.78;;;12.53;68.16
58092;BME280;43896;48.178;11.578;2023-05-12T11:12:30;95578.22;;;12.63;68.22
58092;BME280;43896;48.178;11.578;2023-05-12T11:14:58;95548.84;;;12.43;67.98
58092;BME280;43896;48.178;11.578;2023-05-12T11:17:23;95560.78;;;12.76;67.06
58092;BME280;43896;48.178;11.578;2023-05-12T11:19:49;95574.94;;;12.37;68.25
58092;BME280;43896;48.178;11.578;2023-05-12T11:22:17;95577.72;;;12.13;69.77
58092;BME280;43896;48.178;11.578;2023-05-12T11:24:44;95582.34;;;12.80;67.80
58092;BME280;43896;48.178;11.578;2023-05-12T11:27:13;95609.47;;;13.27;67.12
58092;BME280;43896;48.178;11.578;2023-05-12T11:29:40;95546.94;;;12.74;68.21
58092;BME280;43896;48.178;11.578;2023-05-12T11:32:07;95598.78;;;13.43;66.94
58092;BME280;43896;48.178;11.578;2023-05-12T11:34:33;95639.13;;;13.52;66.83
58092;BME280;43896;48.178;11.578;2023-05-12T11:36:58;95583.44;;;12.86;67.35
58092;BME280;43896;48.178;11.578;2023-05-12T11:39:26;95542.53;;;12.52;68.66
58092;BME280;43896;48.178;11.578;2023-05-12T11:41:52;95576.56;;;12.62;67.71
58092;BME280;43896;48.178;11.578;2023-05-12T11:44:22;95628.25;;;12.94;68.46
58092;BME280;43896;48.178;11.578;2023-05-12T11:49:20;95558.66;;;12.57;68.51
58092;BME280;43896;48.178;11.578;2023-05-12T11:51:45;95630.44;;;12.90;69.08
58092;BME280;43896;48.178;11.578;2023-05-12T11:54:10;95581.88;;;13.00;68.10
58092;BME280;43896;48.178;11.578;2023-05-12T11:56:36;95577.69;;;13.05;68.60
58092;BME280;43896;48.178;11.578;2023-05-12T11:59:01;95566.09;;;13.06;67.96
58092;BME280;43896;48.178;11.578;2023-05-12T12:01:27;95608.56;;;13.05;69.35
58092;BME280;43896;48.178;11.578;2023-05-12T12:03:53;95610.34;;;12.66;70.07
58092;BME280;43896;48.178;11.578;2023-05-12T12:06:21;95558.47;;;12.12;69.15
58092;BME280;43896;48.178;11.578;2023-05-12T12:11:19;95588.00;;;12.54;68.91
58092;BME280;43896;48.178;11.578;2023-05-12T12:13:51;95648.22;;;12.97;67.34
58092;BME280;43896;48.178;11.578;2023-05-12T12:16:30;95570.91;;;12.50;67.80
58092;BME280;43896;48.178;11.578;2023-05-12T12:18:56;95590.31;;;12.72;67.86
58092;BME280;43896;48.178;11.578;2023-05-12T12:21:22;95572.75;;;11.95;69.48
58092;BME280;43896;48.178;11.578;2023-05-12T12:23:48;95648.56;;;12.16;70.48
58092;BME280;43896;48.178;11.578;2023-05-12T12:26:14;95638.88;;;12.08;71.23
58092;BME280;43896;48.178;11.578;2023-05-12T12:28:48;95648.97;;;12.59;68.92
58092;BME280;43896;48.178;11.578;2023-05-12T12:31:14;95654.63;;;12.48;69.09
58092;BME280;43896;48.178;11.578;2023-05-12T12:33:40;95624.59;;;12.57;68.38
58092;BME280;43896;48.178;11.578;2023-05-12T12:36:05;95636.91;;;12.42;69.35
58092;BME280;43896;48.178;11.578;2023-05-12T12:38:31;95649.94;;;13.04;69.87
58092;BME280;43896;48.178;11.578;2023-05-12T12:40:56;95633.69;;;12.78;68.12
58092;BME280;43896;48.178;11.578;2023-05-12T12:43:22;95656.44;;;13.17;67.85
58092;BME280;43896;48.178;11.578;2023-05-12T12:45:47;95644.50;;;13.06;68.33
58092;BME280;43896;48.178;11.578;2023-05-12T12:48:13;95647.28;;;12.89;68.90
58092;BME280;43896;48.178;11.578;2023-05-12T12:50:38;95649.78;;;13.06;69.63
58092;BME280;43896;48.178;11.578;2023-05-12T12:53:04;95641.81;;;12.45;71.40